Time;durP1;ratioP1;P1;durP2;ratioP2;P2;SDS_P1;SDS_P2;PMS_P1;PMS_P2;Temp;Humidity;BMP_temperature;BMP_pressure;BME280_temperature;BME280_humidity;BME280_pressure;Samples;Min_cycle;Max_cycle;Signal;HPM_P1;HPM_P2
2022/03/12 00:00:07;;;;;;;11.68;9.00;;;8.30;64.50;;;;;;4997722;28;20042;-72
2022/03/12 00:02:34;;;;;;;15.02;9.82;;;8.30;64.80;;;;;;4996666;28;20502;-71
2022/03/12 00:05:06;;;;;;;14.73;8.85;;;8.30;64.30;;;;;;4997647;28;20077;-72
2022/03/12 00:07:32;;;;;;;15.55;10.20;;;8.30;64.70;;;;;;4997246;28;20057;-73
2022/03/12 00:09:57;;;;;;;16.02;8.55;;;8.30;64.80;;;;;;4996417;28;20042;-72
2022/03/12 00:12:24;;;;;;;13.07;9.18;;;8.30;64.70;;;;;;4997834;28;20041;-71
2022/03/12 00:14:50;;;;;;;16.55;10.00;;;8.30;64.50;;;;;;4997152;28;20042;-71
2022/03/12 00:17:18;;;;;;;12.13;9.18;;;8.30;63.80;;;;;;4996264;28;20050;-72
2022/03/12 00:19:44;;;;;;;13.10;9.05;;;8.40;64.10;;;;;;4997175;28;20386;-72
2022/03/12 00:22:12;;;;;;;12.25;8.90;;;8.30;63.70;;;;;;4997522;28;20081;-71
2022/03/12 00:24:40;;;;;;;12.30;8.82;;;8.40;63.40;;;;;;4997199;28;20105;-71
2022/03/12 00:27:09;;;;;;;14.70;9.07;;;8.40;63.70;;;;;;4997328;28;20054;-72
2022/03/12 00:29:36;;;;;;;13.00;9.43;;;8.40;63.70;;;;;;4995566;28;20101;-71
2022/03/12 00:32:05;;;;;;;16.23;9.07;;;8.40;63.80;;;;;;4996280;28;20360;-71
2022/03/12 00:34:31;;;;;;;16.98;9.50;;;8.30;64.10;;;;;;4997045;28;20125;-73
2022/03/12 00:36:57;;;;;;;12.10;9.15;;;8.30;64.20;;;;;;4997044;28;20060;-71
2022/03/12 00:39:22;;;;;;;12.98;8.63;;;8.30;63.90;;;;;;4997399;28;20034;-72
2022/03/12 00:41:48;;;;;;;14.27;8.57;;;8.30;63.80;;;;;;4997261;28;20038;-71
2022/03/12 00:44:18;;;;;;;13.63;9.20;;;8.30;64.50;;;;;;4996539;28;20038;-72
2022/03/12 00:46:44;;;;;;;10.60;8.15;;;8.30;64.00;;;;;;4996648;28;20105;-71
2022/03/12 00:49:10;;;;;;;11.00;8.60;;;8.20;64.20;;;;;;4996645;28;20057;-72
2022/03/12 00:51:38;;;;;;;14.20;8.32;;;8.20;64.60;;;;;;4996812;28;20046;-74
2022/03/12 00:54:04;;;;;;;14.60;9.68;;;8.20;64.30;;;;;;4996779;28;20054;-71
2022/03/12 00:56:29;;;;;;;11.60;8.43;;;8.20;64.90;;;;;;4996379;28;20042;-73
2022/03/12 00:58:56;;;;;;;13.73;8.88;;;8.20;64.40;;;;;;4996080;28;20125;-72
2022/03/12 01:01:25;;;;;;;13.13;8.55;;;8.20;64.60;;;;;;4994429;28;20361;-72
2022/03/12 01:03:50;;;;;;;14.07;9.18;;;8.20;64.60;;;;;;4996524;28;20038;-72
2022/03/12 01:06:18;;;;;;;12.90;8.77;;;8.10;64.40;;;;;;4996527;28;20112;-72
2022/03/12 01:08:44;;;;;;;11.85;8.35;;;8.10;64.50;;;;;;4995891;28;20050;-72
2022/03/12 01:11:11;;;;;;;13.43;8.70;;;8.10;64.20;;;;;;4995464;28;20120;-72
2022/03/12 01:13:38;;;;;;;13.02;9.18;;;8.10;64.30;;;;;;4996062;28;20337;-72
2022/03/12 01:16:04;;;;;;;16.25;8.52;;;8.10;64.70;;;;;;4996067;28;20121;-71
2022/03/12 01:18:30;;;;;;;11.18;8.38;;;8.10;64.40;;;;;;4996474;28;20050;-72
2022/03/12 01:21:18;;;;;;;18.20;9.27;;;8.10;64.50;;;;;;4995885;28;20046;-73
2022/03/12 01:23:48;;;;;;;15.82;8.70;;;8.10;64.40;;;;;;4996301;28;20360;-73
2022/03/12 01:26:14;;;;;;;12.40;8.60;;;8.00;64.00;;;;;;4994962;28;20061;-72
2022/03/12 01:28:40;;;;;;;13.10;9.35;;;8.00;64.30;;;;;;4995619;28;20048;-72
2022/03/12 01:31:06;;;;;;;12.30;8.57;;;8.00;64.00;;;;;;4994839;28;20129;-72
2022/03/12 01:33:32;;;;;;;10.80;8.25;;;8.00;64.30;;;;;;4995727;28;20122;-72
2022/03/12 01:35:58;;;;;;;12.65;8.63;;;8.00;64.20;;;;;;4996268;28;20084;-71
2022/03/12 01:38:30;;;;;;;16.33;8.20;;;7.90;64.60;;;;;;4995429;28;20050;-72
2022/03/12 01:40:56;;;;;;;10.82;8.38;;;7.90;64.30;;;;;;4994963;28;20176;-72
2022/03/12 01:43:22;;;;;;;13.88;8.50;;;7.90;64.40;;;;;;4995528;28;20122;-71
2022/03/12 01:45:48;;;;;;;11.07;7.95;;;7.90;65.00;;;;;;4995890;28;20039;-72
2022/03/12 01:48:13;;;;;;;12.95;8.43;;;7.90;64.70;;;;;;4995303;28;20194;-72
2022/03/12 01:50:39;;;;;;;12.65;9.05;;;8.00;64.40;;;;;;4995578;28;20065;-71
2022/03/12 01:53:08;;;;;;;11.38;8.52;;;7.90;64.40;;;;;;4995667;28;20042;-72
2022/03/12 01:55:36;;;;;;;11.75;8.60;;;7.90;64.80;;;;;;4994926;28;20101;-72
2022/03/12 01:58:03;;;;;;;14.73;8.88;;;7.80;65.50;;;;;;4995412;28;20069;-72
2022/03/12 02:00:43;;;;;;;18.65;9.48;;;7.80;65.10;;;;;;4995400;28;20057;-71
2022/03/12 02:03:10;;;;;;;12.93;8.57;;;7.80;65.40;;;;;;4995578;28;20050;-72
2022/03/12 02:05:36;;;;;;;13.13;8.75;;;7.80;65.70;;;;;;4995288;28;20042;-72
2022/03/12 02:08:02;;;;;;;16.42;9.43;;;7.70;65.90;;;;;;4995774;28;20050;-73
2022/03/12 02:10:28;;;;;;;13.32;9.07;;;7.70;65.50;;;;;;4995163;28;20049;-72
2022/03/12 02:12:54;;;;;;;14.50;8.63;;;7.80;66.00;;;;;;4995329;28;20042;-71
2022/03/12 02:15:22;;;;;;;12.15;8.70;;;7.70;66.00;;;;;;4995370;28;20038;-71
2022/03/12 02:17:50;;;;;;;12.63;8.90;;;7.70;66.10;;;;;;4995426;28;20054;-72
2022/03/12 02:20:17;;;;;;;15.02;8.55;;;7.70;65.90;;;;;;4995243;28;20345;-71
2022/03/12 02:22:44;;;;;;;15.32;8.88;;;7.70;65.90;;;;;;4994746;28;20093;-71
2022/03/12 02:25:10;;;;;;;11.95;8.30;;;7.70;65.80;;;;;;4995034;28;20046;-73
2022/03/12 02:27:37;;;;;;;15.05;9.30;;;7.70;65.70;;;;;;4995412;28;20133;-73
2022/03/12 02:30:08;;;;;;;11.07;8.27;;;7.70;65.80;;;;;;4995357;28;20034;-72
2022/03/12 02:32:37;;;;;;;11.77;8.77;;;7.70;66.50;;;;;;4994048;28;20342;-71
2022/03/12 02:35:08;;;;;;;12.52;8.68;;;7.70;66.40;;;;;;4994823;28;20034;-72
2022/03/12 02:37:33;;;;;;;12.00;8.88;;;7.70;66.00;;;;;;4995237;28;20451;-72
2022/03/12 02:40:09;;;;;;;14.93;7.90;;;7.60;66.10;;;;;;4994998;28;20042;-71
2022/03/12 02:42:38;;;;;;;14.88;8.90;;;7.70;65.80;;;;;;4995203;28;20038;-72
2022/03/12 02:45:07;;;;;;;12.57;8.80;;;7.70;66.40;;;;;;4995163;28;20042;-70
2022/03/12 02:47:35;;;;;;;12.43;8.98;;;7.70;66.20;;;;;;4994459;28;20057;-72
2022/03/12 02:50:06;;;;;;;11.30;8.70;;;7.70;65.40;;;;;;4994459;28;20038;-72
2022/03/12 02:52:33;;;;;;;14.30;9.77;;;7.70;65.50;;;;;;4994886;28;20061;-71
2022/03/12 02:55:00;;;;;;;11.60;8.60;;;7.70;65.40;;;;;;4998165;28;20069;-72
2022/03/12 02:57:27;;;;;;;13.77;9.70;;;7.80;65.50;;;;;;4999523;28;20042;-71
2022/03/12 02:59:54;;;;;;;14.38;9.68;;;7.70;65.80;;;;;;5000815;28;20045;-72
2022/03/12 03:02:39;;;;;;;13.02;9.40;;;7.70;65.70;;;;;;5018575;28;20046;-71
2022/03/12 03:05:11;;;;;;;17.00;9.20;;;7.80;66.10;;;;;;5018119;28;20041;-71
2022/03/12 03:07:37;;;;;;;15.20;8.38;;;7.70;65.40;;;;;;5018398;28;20088;-73
2022/03/12 03:10:03;;;;;;;11.98;8.70;;;7.80;65.50;;;;;;5018520;28;20046;-72
2022/03/12 03:12:29;;;;;;;14.82;9.13;;;7.80;65.80;;;;;;5017895;28;20046;-71
2022/03/12 03:14:55;;;;;;;13.45;9.07;;;7.70;65.70;;;;;;5018172;28;20042;-72
2022/03/12 03:17:20;;;;;;;14.43;9.75;;;7.80;65.70;;;;;;5001041;28;20096;-70
2022/03/12 03:19:46;;;;;;;11.82;8.57;;;7.80;65.90;;;;;;5017471;28;20383;-71
2022/03/12 03:22:12;;;;;;;13.20;8.77;;;7.80;65.60;;;;;;5000899;28;20057;-71
2022/03/12 03:24:38;;;;;;;15.90;9.40;;;7.80;65.70;;;;;;5018209;28;20056;-71
2022/03/12 03:27:04;;;;;;;12.73;9.25;;;7.80;66.10;;;;;;5018019;28;20125;-72
2022/03/12 03:29:33;;;;;;;16.50;10.18;;;7.90;66.70;;;;;;5017684;28;20038;-72
2022/03/12 03:32:02;;;;;;;14.48;9.70;;;7.90;67.30;;;;;;5018011;28;20394;-71
2022/03/12 03:34:32;;;;;;;15.57;9.45;;;7.90;68.00;;;;;;4998985;28;20045;-72
2022/03/12 03:36:59;;;;;;;15.10;9.57;;;7.90;68.30;;;;;;5017963;28;20061;-72
2022/03/12 03:39:24;;;;;;;17.73;9.50;;;7.90;68.30;;;;;;5018119;28;20054;-71
2022/03/12 03:41:50;;;;;;;16.77;9.60;;;7.90;68.30;;;;;;5000469;28;20038;-72
2022/03/12 03:44:21;;;;;;;14.85;9.60;;;7.90;67.90;;;;;;5017602;28;20096;-70
2022/03/12 03:46:47;;;;;;;13.10;9.77;;;7.90;67.90;;;;;;5007727;28;20045;-71
2022/03/12 03:49:12;;;;;;;15.32;9.55;;;7.90;67.50;;;;;;4981004;28;20038;-72
2022/03/12 03:51:41;;;;;;;13.82;9.27;;;7.90;68.20;;;;;;4998133;28;20053;-72
2022/03/12 03:54:08;;;;;;;14.50;9.38;;;7.90;68.10;;;;;;4997548;28;20068;-72
2022/03/12 03:56:34;;;;;;;12.55;9.18;;;7.90;68.80;;;;;;4997963;28;20046;-72
2022/03/12 03:59:00;;;;;;;13.63;9.63;;;7.90;68.70;;;;;;4997686;28;20479;-72
2022/03/12 04:01:26;;;;;;;15.90;9.90;;;7.90;69.60;;;;;;4997375;28;20057;-70
2022/03/12 04:03:52;;;;;;;13.80;10.18;;;7.90;70.90;;;;;;4996928;28;20093;-73
2022/03/12 04:06:20;;;;;;;14.52;10.13;;;7.80;74.20;;;;;;4996524;28;20078;-72
2022/03/12 04:08:47;;;;;;;13.88;10.13;;;7.80;75.80;;;;;;4998083;28;20061;-71
2022/03/12 04:11:23;;;;;;;14.23;10.43;;;7.80;79.50;;;;;;4996899;28;20125;-71
2022/03/12 04:13:52;;;;;;;13.65;9.88;;;7.70;84.40;;;;;;4995786;28;20093;-72
2022/03/12 04:16:19;;;;;;;13.95;10.02;;;7.70;88.80;;;;;;4996710;28;20353;-72
2022/03/12 04:18:46;;;;;;;15.20;10.48;;;7.60;92.80;;;;;;4997335;28;20040;-72
2022/03/12 04:21:13;;;;;;;13.88;9.85;;;7.60;95.00;;;;;;4997427;28;20460;-72
2022/03/12 04:23:40;;;;;;;15.02;11.05;;;7.60;96.60;;;;;;4996371;28;20413;-72
2022/03/12 04:26:06;;;;;;;15.98;10.95;;;7.50;99.60;;;;;;4997031;28;20057;-72
2022/03/12 04:28:32;;;;;;;13.40;11.07;;;7.50;99.90;;;;;;4996767;28;20107;-72
2022/03/12 04:31:03;;;;;;;18.10;11.27;;;7.40;99.90;;;;;;4996615;28;20039;-72
2022/03/12 04:33:29;;;;;;;16.23;10.68;;;7.40;99.90;;;;;;4997515;28;20126;-71
2022/03/12 04:35:56;;;;;;;14.95;10.98;;;7.40;99.90;;;;;;4996632;28;20054;-72
2022/03/12 04:38:22;;;;;;;16.27;10.65;;;7.40;99.90;;;;;;4995811;28;20042;-71
2022/03/12 04:40:48;;;;;;;16.63;11.48;;;7.40;99.90;;;;;;4996942;28;20038;-71
2022/03/12 04:43:15;;;;;;;28.48;12.15;;;7.30;99.90;;;;;;4995807;28;20042;-72
2022/03/12 04:45:45;;;;;;;15.38;11.30;;;7.30;99.90;;;;;;4995865;28;20056;-71
2022/03/12 04:48:17;;;;;;;15.70;11.70;;;7.30;99.90;;;;;;4997386;28;20057;-71
2022/03/12 04:50:42;;;;;;;18.50;11.77;;;7.30;99.90;;;;;;4996239;28;20042;-71
2022/03/12 04:53:08;;;;;;;16.02;11.05;;;7.30;99.90;;;;;;4995586;28;20057;-71
2022/03/12 04:55:36;;;;;;;15.65;11.80;;;7.20;99.90;;;;;;4997078;28;20043;-71
2022/03/12 04:58:03;;;;;;;15.27;11.18;;;7.20;99.90;;;;;;5002238;28;20058;-71
2022/03/12 05:00:30;;;;;;;18.63;11.40;;;7.20;99.90;;;;;;4976809;28;20113;-71
2022/03/12 05:03:23;;;;;;;16.65;11.70;;;7.20;99.90;;;;;;4977459;28;20125;-71
2022/03/12 05:05:50;;;;;;;15.90;12.35;;;7.20;99.90;;;;;;4974391;28;20062;-72
2022/03/12 05:08:18;;;;;;;19.27;12.32;;;7.20;99.90;;;;;;4977178;28;20100;-72
2022/03/12 05:10:49;;;;;;;17.63;11.52;;;7.10;99.90;;;;;;4976951;28;20101;-70
2022/03/12 05:13:19;;;;;;;17.60;12.23;;;7.20;99.90;;;;;;4983874;28;20038;-72
2022/03/12 05:15:45;;;;;;;17.85;12.50;;;7.10;99.90;;;;;;5015962;28;20053;-73
2022/03/12 05:18:12;;;;;;;20.63;11.63;;;7.10;99.90;;;;;;4998541;28;20050;-72
2022/03/12 05:20:43;;;;;;;18.73;13.20;;;7.10;99.90;;;;;;5015505;28;20321;-71
2022/03/12 05:23:09;;;;;;;17.48;12.10;;;7.00;99.90;;;;;;5015500;28;20049;-72
2022/03/12 05:25:39;;;;;;;18.33;11.98;;;7.00;99.90;;;;;;4998139;28;20352;-71
2022/03/12 05:28:04;;;;;;;16.85;11.77;;;7.00;99.90;;;;;;5015481;28;20411;-71
2022/03/12 05:30:30;;;;;;;17.40;11.95;;;7.00;99.90;;;;;;5015290;28;20126;-73
2022/03/12 05:32:56;;;;;;;16.40;12.10;;;7.00;99.90;;;;;;4998403;28;20463;-72
2022/03/12 05:35:22;;;;;;;16.58;11.77;;;6.90;99.90;;;;;;4998297;28;20352;-72
2022/03/12 05:37:53;;;;;;;18.60;12.05;;;6.90;99.90;;;;;;4998487;28;20050;-72
2022/03/12 05:40:20;;;;;;;16.17;11.20;;;6.90;99.90;;;;;;4997907;28;20033;-74
2022/03/12 05:42:49;;;;;;;18.77;12.35;;;6.90;99.90;;;;;;5015771;28;20088;-71
2022/03/12 05:45:19;;;;;;;18.67;11.27;;;6.90;99.90;;;;;;5015147;28;20140;-73
2022/03/12 05:47:45;;;;;;;20.40;12.32;;;6.90;99.90;;;;;;5015356;28;20112;-72
2022/03/12 05:50:12;;;;;;;18.23;11.68;;;6.90;99.90;;;;;;5015355;28;20037;-71
2022/03/12 05:52:48;;;;;;;17.00;11.70;;;6.90;99.90;;;;;;5015170;28;20065;-73
2022/03/12 05:55:21;;;;;;;16.08;11.15;;;6.90;99.90;;;;;;4995852;28;20078;-73
2022/03/12 05:57:47;;;;;;;15.90;11.05;;;6.90;99.90;;;;;;4995047;28;20459;-72
2022/03/12 06:00:15;;;;;;;15.18;11.05;;;6.80;99.90;;;;;;4994441;28;20082;-73
2022/03/12 06:02:51;;;;;;;18.73;12.10;;;6.80;99.90;;;;;;4994261;28;20065;-73
2022/03/12 06:05:21;;;;;;;18.58;12.40;;;6.70;99.90;;;;;;4994684;28;20060;-73
2022/03/12 06:07:47;;;;;;;17.98;12.15;;;6.70;99.90;;;;;;4995511;28;20108;-73
2022/03/12 06:10:18;;;;;;;19.63;11.02;;;6.60;99.90;;;;;;4995010;28;20070;-72
2022/03/12 06:12:44;;;;;;;14.63;11.30;;;6.60;99.90;;;;;;4994513;28;20357;-72
2022/03/12 06:15:16;;;;;;;14.63;11.10;;;6.60;99.90;;;;;;4995330;28;20030;-72
2022/03/12 06:17:42;;;;;;;18.60;11.27;;;6.60;99.90;;;;;;4995343;28;20318;-74
2022/03/12 06:20:10;;;;;;;18.42;11.75;;;6.60;99.90;;;;;;4995459;28;20060;-72
2022/03/12 06:22:36;;;;;;;14.68;10.95;;;6.50;99.90;;;;;;4995179;28;20050;-71
2022/03/12 06:25:02;;;;;;;17.50;11.10;;;6.50;99.90;;;;;;4995255;28;20038;-73
2022/03/12 06:27:28;;;;;;;16.13;11.27;;;6.50;99.90;;;;;;4997664;28;20042;-72
2022/03/12 06:29:56;;;;;;;16.73;11.73;;;6.50;99.90;;;;;;5001587;28;20045;-73
2022/03/12 06:32:22;;;;;;;15.40;11.40;;;6.50;99.90;;;;;;5001077;28;20045;-71
2022/03/12 06:34:48;;;;;;;15.32;10.98;;;6.50;99.90;;;;;;5001751;28;20053;-72
2022/03/12 06:37:13;;;;;;;21.35;12.45;;;6.50;99.90;;;;;;5001846;28;20038;-73
2022/03/12 06:39:39;;;;;;;16.58;11.52;;;6.40;99.90;;;;;;5001044;28;20390;-72
2022/03/12 06:42:05;;;;;;;16.35;11.77;;;6.50;99.90;;;;;;5001837;28;20046;-73
2022/03/12 06:44:36;;;;;;;14.45;10.55;;;6.50;99.90;;;;;;4999996;28;20046;-74
2022/03/12 06:47:07;;;;;;;19.73;11.82;;;6.60;99.90;;;;;;5000282;28;20043;-72
2022/03/12 06:49:34;;;;;;;15.00;10.65;;;6.40;99.90;;;;;;5001692;28;20100;-72
2022/03/12 06:51:59;;;;;;;21.67;11.63;;;6.50;99.90;;;;;;5001285;28;20046;-72
2022/03/12 06:54:25;;;;;;;17.30;11.18;;;6.50;99.90;;;;;;5001734;28;20046;-72
2022/03/12 06:56:51;;;;;;;15.88;11.52;;;6.50;99.90;;;;;;5001001;28;20038;-71
2022/03/12 06:59:17;;;;;;;15.98;10.35;;;6.50;99.90;;;;;;5001336;28;20120;-72
2022/03/12 07:01:42;;;;;;;16.02;12.38;;;6.60;99.90;;;;;;5000355;28;20050;-73
2022/03/12 07:04:09;;;;;;;14.48;11.32;;;6.60;99.90;;;;;;5000204;28;20376;-73
2022/03/12 07:06:35;;;;;;;14.82;11.13;;;6.60;99.90;;;;;;5000960;28;20050;-73
2022/03/12 07:09:01;;;;;;;16.38;11.73;;;6.70;99.90;;;;;;5001445;28;20133;-72
2022/03/12 07:11:28;;;;;;;16.85;12.55;;;6.70;99.90;;;;;;4984217;28;20081;-73
2022/03/12 07:13:53;;;;;;;15.18;11.60;;;6.70;99.90;;;;;;5001135;28;20030;-73
2022/03/12 07:16:19;;;;;;;16.73;10.70;;;6.80;99.90;;;;;;5000860;28;20057;-72
2022/03/12 07:18:44;;;;;;;15.20;11.15;;;6.80;99.90;;;;;;5000440;28;20042;-72
2022/03/12 07:21:10;;;;;;;14.88;11.93;;;6.80;99.90;;;;;;5001007;28;20122;-73
2022/03/12 07:23:35;;;;;;;22.42;12.18;;;6.90;99.90;;;;;;4999843;28;20053;-73
2022/03/12 07:26:01;;;;;;;16.98;12.18;;;6.90;99.90;;;;;;5000384;28;20038;-71
2022/03/12 07:28:27;;;;;;;17.98;11.63;;;7.00;99.90;;;;;;5000435;28;20053;-72
2022/03/12 07:30:54;;;;;;;17.02;12.20;;;7.10;99.90;;;;;;5001527;28;20053;-71
2022/03/12 07:33:19;;;;;;;21.25;12.10;;;7.10;99.90;;;;;;5000661;28;20104;-71
2022/03/12 07:35:45;;;;;;;20.13;12.15;;;7.20;99.90;;;;;;5000484;28;20050;-72
2022/03/12 07:38:11;;;;;;;20.17;12.82;;;7.20;99.90;;;;;;5000082;28;20050;-71
2022/03/12 07:40:37;;;;;;;19.15;12.68;;;7.30;99.90;;;;;;4997324;28;20046;-73
2022/03/12 07:43:03;;;;;;;15.88;11.90;;;7.30;99.90;;;;;;4998200;28;20042;-73
2022/03/12 07:45:29;;;;;;;16.13;12.07;;;7.40;99.90;;;;;;4997320;28;20527;-73
2022/03/12 07:47:55;;;;;;;19.08;12.80;;;7.50;99.90;;;;;;4997120;28;20121;-71
2022/03/12 07:50:21;;;;;;;19.00;12.43;;;7.50;99.90;;;;;;4997189;28;20093;-73
2022/03/12 07:52:47;;;;;;;15.82;11.68;;;7.60;99.90;;;;;;4997451;28;20038;-69
2022/03/12 07:55:13;;;;;;;18.10;11.98;;;7.60;99.90;;;;;;4997911;28;20057;-71
2022/03/12 07:57:42;;;;;;;17.02;12.73;;;7.70;99.90;;;;;;4997769;28;20050;-72
2022/03/12 08:00:11;;;;;;;18.83;12.40;;;7.80;99.90;;;;;;4997003;28;20176;-71
2022/03/12 08:02:37;;;;;;;17.92;12.43;;;7.90;99.90;;;;;;4996756;28;20111;-72
2022/03/12 08:05:03;;;;;;;20.30;12.60;;;8.00;99.90;;;;;;4997462;28;20121;-73
2022/03/12 08:07:29;;;;;;;16.85;11.90;;;8.00;99.90;;;;;;4997477;28;20050;-72
2022/03/12 08:09:59;;;;;;;18.00;13.15;;;8.10;99.90;;;;;;4997506;28;20039;-70
2022/03/12 08:12:28;;;;;;;18.92;13.25;;;8.20;99.90;;;;;;4996292;28;20046;-73
2022/03/12 08:14:54;;;;;;;19.17;12.60;;;8.30;99.90;;;;;;4997283;28;20480;-72
2022/03/12 08:17:19;;;;;;;15.70;12.02;;;8.40;99.90;;;;;;4997650;28;20034;-74
2022/03/12 08:19:45;;;;;;;17.30;12.20;;;8.50;99.90;;;;;;4997122;28;20511;-71
2022/03/12 08:22:11;;;;;;;16.25;11.43;;;8.70;99.90;;;;;;4996347;28;20046;-71
2022/03/12 08:24:37;;;;;;;16.98;12.32;;;8.70;99.90;;;;;;4996211;28;20096;-71
2022/03/12 08:27:03;;;;;;;24.58;13.52;;;8.80;99.90;;;;;;4996425;28;20042;-70
2022/03/12 08:29:29;;;;;;;18.60;13.15;;;8.90;99.90;;;;;;4997387;28;20341;-71
2022/03/12 08:31:55;;;;;;;20.48;13.45;;;9.00;99.90;;;;;;4997186;28;20053;-71
2022/03/12 08:34:20;;;;;;;19.08;12.98;;;9.10;99.90;;;;;;4996121;28;20105;-74
2022/03/12 08:36:46;;;;;;;18.67;12.27;;;9.10;99.90;;;;;;4996589;28;20064;-74
2022/03/12 08:39:14;;;;;;;17.77;12.05;;;9.10;99.90;;;;;;4995013;28;20042;-73
2022/03/12 08:41:40;;;;;;;17.08;12.65;;;9.20;99.90;;;;;;4993205;28;20088;-75
2022/03/12 08:44:07;;;;;;;22.27;12.52;;;9.30;99.90;;;;;;4997151;28;20430;-71
2022/03/12 08:46:35;;;;;;;16.20;12.88;;;9.40;99.90;;;;;;4996520;28;20042;-71
2022/03/12 08:49:01;;;;;;;17.80;13.45;;;9.40;99.90;;;;;;4996671;28;20050;-72
2022/03/12 08:51:27;;;;;;;18.83;12.88;;;9.50;99.90;;;;;;4996105;28;20407;-70
2022/03/12 08:53:52;;;;;;;17.55;13.43;;;9.50;99.90;;;;;;4996254;28;20038;-70
2022/03/12 08:56:18;;;;;;;21.10;13.35;;;9.50;99.90;;;;;;4995907;28;20046;-72
2022/03/12 08:58:44;;;;;;;19.52;13.90;;;9.60;99.90;;;;;;4996362;28;20457;-72
2022/03/12 09:01:10;;;;;;;20.98;13.75;;;9.60;99.90;;;;;;4995845;28;20031;-72
2022/03/12 09:03:37;;;;;;;21.45;13.70;;;9.70;99.90;;;;;;4995400;28;20329;-72
2022/03/12 09:06:03;;;;;;;19.55;13.75;;;9.70;99.90;;;;;;4995400;28;20050;-73
2022/03/12 09:08:29;;;;;;;18.20;14.10;;;9.80;99.90;;;;;;4996451;28;20049;-74
2022/03/12 09:10:55;;;;;;;20.42;14.10;;;9.80;99.90;;;;;;4996371;28;20038;-74
2022/03/12 09:13:21;;;;;;;19.73;13.70;;;9.80;99.90;;;;;;4996563;28;20074;-71
2022/03/12 09:15:47;;;;;;;18.13;14.32;;;9.90;99.90;;;;;;4995886;28;20066;-72
2022/03/12 09:18:15;;;;;;;20.65;14.23;;;10.00;99.90;;;;;;4995812;28;20420;-74
2022/03/12 09:20:46;;;;;;;18.92;13.95;;;10.00;99.90;;;;;;4995194;28;20050;-72
2022/03/12 09:23:17;;;;;;;19.95;13.63;;;10.10;99.90;;;;;;4994376;28;20034;-71
2022/03/12 09:25:43;;;;;;;18.08;13.52;;;10.20;99.90;;;;;;4996041;28;20461;-72
2022/03/12 09:28:10;;;;;;;19.13;13.68;;;10.30;99.90;;;;;;4996319;28;20042;-72
2022/03/12 09:30:35;;;;;;;17.63;12.77;;;10.30;99.90;;;;;;4995590;28;20376;-73
2022/03/12 09:33:01;;;;;;;18.55;13.20;;;10.30;99.90;;;;;;4994916;28;20054;-74
2022/03/12 09:35:28;;;;;;;19.58;13.20;;;10.40;99.90;;;;;;4978553;28;20046;-73
2022/03/12 09:37:55;;;;;;;21.73;12.25;;;10.40;99.90;;;;;;4996147;28;20046;-73
2022/03/12 09:40:21;;;;;;;17.90;12.57;;;10.40;99.90;;;;;;4996122;28;20034;-74
2022/03/12 09:42:47;;;;;;;19.23;13.15;;;10.40;99.90;;;;;;4995102;28;20050;-73
2022/03/12 09:45:13;;;;;;;19.33;13.32;;;10.50;99.90;;;;;;4995226;28;20049;-73
2022/03/12 09:47:39;;;;;;;17.08;12.60;;;10.50;99.90;;;;;;4995361;28;20050;-72
2022/03/12 09:50:05;;;;;;;17.20;12.00;;;10.50;99.90;;;;;;4996253;28;20508;-72
2022/03/12 09:52:32;;;;;;;16.92;12.77;;;10.50;99.90;;;;;;4996231;28;20046;-71
2022/03/12 09:54:57;;;;;;;17.60;13.07;;;10.50;99.90;;;;;;4995634;28;20042;-75
2022/03/12 09:57:23;;;;;;;16.10;12.38;;;10.60;99.90;;;;;;4995538;28;20038;-74
2022/03/12 09:59:49;;;;;;;17.92;13.77;;;10.60;99.90;;;;;;4994294;28;20050;-73
2022/03/12 10:02:15;;;;;;;15.45;12.07;;;10.60;99.90;;;;;;4994047;28;20042;-74
2022/03/12 10:04:40;;;;;;;16.05;11.90;;;10.70;99.90;;;;;;4995504;28;20345;-74
2022/03/12 10:07:08;;;;;;;14.07;11.32;;;10.70;99.90;;;;;;4995659;28;20070;-74
2022/03/12 10:09:34;;;;;;;16.80;11.70;;;10.70;99.90;;;;;;4995813;28;20077;-74
2022/03/12 10:12:01;;;;;;;13.70;10.82;;;10.80;99.90;;;;;;4994796;28;20049;-70
2022/03/12 10:14:27;;;;;;;14.82;10.80;;;10.80;99.90;;;;;;4995092;28;20046;-73
2022/03/12 10:16:53;;;;;;;16.45;10.88;;;10.90;99.90;;;;;;4995494;28;20054;-72
2022/03/12 10:19:19;;;;;;;14.30;10.50;;;11.00;99.90;;;;;;4995425;28;20050;-72
2022/03/12 10:21:45;;;;;;;15.75;10.82;;;11.00;99.90;;;;;;4995111;28;20051;-72
2022/03/12 10:24:14;;;;;;;14.15;10.50;;;11.00;99.90;;;;;;4995445;28;20085;-73
2022/03/12 10:26:41;;;;;;;12.90;10.20;;;11.10;99.90;;;;;;4995707;28;20349;-72
2022/03/12 10:29:09;;;;;;;13.98;10.10;;;11.20;99.90;;;;;;4994120;28;20140;-72
2022/03/12 10:31:38;;;;;;;14.43;9.77;;;11.20;99.90;;;;;;4995257;28;20038;-73
2022/03/12 10:34:14;;;;;;;17.48;9.98;;;11.30;99.90;;;;;;4995341;28;20046;-73
2022/03/12 10:36:39;;;;;;;12.40;8.73;;;11.40;99.90;;;;;;4995195;28;20457;-72
2022/03/12 10:39:05;;;;;;;16.20;9.88;;;11.50;99.90;;;;;;4994536;28;20041;-72
2022/03/12 10:41:31;;;;;;;13.15;8.55;;;11.50;99.90;;;;;;4995225;28;20172;-72
2022/03/12 10:43:57;;;;;;;12.63;9.48;;;11.60;99.90;;;;;;4977960;28;20500;-74
2022/03/12 10:46:28;;;;;;;12.57;8.05;;;11.60;99.90;;;;;;4994137;28;20051;-72
2022/03/12 10:48:58;;;;;;;11.10;8.32;;;11.60;99.90;;;;;;4994953;28;20038;-72
2022/03/12 10:51:35;;;;;;;11.95;7.80;;;11.70;99.90;;;;;;4995157;28;20053;-72
2022/03/12 10:54:07;;;;;;;12.38;7.95;;;11.90;99.90;;;;;;4994217;28;20050;-72
2022/03/12 10:56:50;;;;;;;11.68;7.85;;;11.90;99.90;;;;;;4995054;28;20065;-72
2022/03/12 10:59:21;;;;;;;14.18;6.70;;;12.00;99.90;;;;;;5001177;28;20356;-71
2022/03/12 11:01:52;;;;;;;10.52;6.68;;;12.10;99.90;;;;;;4978682;28;20476;-73
2022/03/12 11:04:27;;;;;;;11.23;6.68;;;12.10;99.90;;;;;;4995017;28;20134;-72
2022/03/12 11:06:59;;;;;;;8.85;5.20;;;12.20;99.90;;;;;;4994888;28;20053;-71
2022/03/12 11:09:35;;;;;;;9.32;5.72;;;12.40;99.90;;;;;;4994526;28;20370;-73
2022/03/12 11:12:28;;;;;;;10.90;5.18;;;12.60;99.90;;;;;;4994741;28;20050;-74
2022/03/12 11:15:15;;;;;;;11.55;5.70;;;12.60;99.90;;;;;;5008395;28;20065;-73
2022/03/12 11:17:45;;;;;;;10.57;6.55;;;12.60;99.90;;;;;;5017556;28;20132;-71
2022/03/12 11:20:21;;;;;;;8.77;4.97;;;12.60;99.90;;;;;;5001939;28;20061;-72
2022/03/12 11:22:52;;;;;;;8.57;5.05;;;12.50;99.90;;;;;;4998990;28;20133;-68
2022/03/12 11:25:22;;;;;;;9.30;5.78;;;12.40;99.90;;;;;;4992790;28;20164;-73
2022/03/12 11:27:50;;;;;;;12.38;5.63;;;12.40;99.90;;;;;;4978971;28;20050;-72
2022/03/12 11:30:22;;;;;;;9.23;5.50;;;12.40;99.90;;;;;;4991787;28;20046;-73
2022/03/12 11:33:07;;;;;;;8.48;5.53;;;12.30;99.90;;;;;;4992484;28;20066;-73
2022/03/12 11:35:37;;;;;;;8.15;5.18;;;12.40;99.90;;;;;;4977778;28;20034;-71
2022/03/12 11:38:19;;;;;;;10.07;5.35;;;12.40;99.90;;;;;;4984004;28;20039;-71
2022/03/12 11:40:50;;;;;;;10.30;6.10;;;12.40;99.90;;;;;;4998119;28;20447;-73
2022/03/12 11:43:22;;;;;;;9.52;5.15;;;12.50;99.90;;;;;;4987924;28;20053;-72
2022/03/12 11:45:48;;;;;;;8.18;4.80;;;12.40;99.90;;;;;;4997847;28;20057;-72
2022/03/12 11:48:14;;;;;;;10.70;4.63;;;12.30;99.90;;;;;;4980639;28;20046;-74
2022/03/12 11:50:40;;;;;;;11.07;5.40;;;12.30;99.90;;;;;;4998153;28;20105;-71
2022/03/12 11:53:06;;;;;;;10.30;5.25;;;12.40;99.90;;;;;;4998004;28;20449;-72
2022/03/12 11:55:32;;;;;;;10.52;5.75;;;12.40;99.90;;;;;;4998187;28;20038;-74
2022/03/12 11:57:59;;;;;;;9.15;5.25;;;12.50;99.90;;;;;;4997450;28;20120;-74
2022/03/12 12:00:28;;;;;;;8.85;5.35;;;12.40;99.90;;;;;;4995909;28;20050;-73
2022/03/12 12:02:54;;;;;;;11.55;6.28;;;12.50;99.90;;;;;;4996255;28;20054;-74
2022/03/12 12:05:22;;;;;;;11.88;6.22;;;12.50;99.90;;;;;;4997777;28;20042;-73
2022/03/12 12:07:51;;;;;;;8.82;5.82;;;12.70;99.90;;;;;;4997680;28;20042;-73
2022/03/12 12:10:18;;;;;;;9.60;5.75;;;12.70;99.90;;;;;;4997669;28;20096;-73
2022/03/12 12:12:47;;;;;;;8.88;6.03;;;12.70;99.90;;;;;;4996965;28;20046;-73
2022/03/12 12:15:19;;;;;;;10.63;6.70;;;12.70;99.90;;;;;;4997340;28;20037;-73
2022/03/12 12:17:46;;;;;;;10.15;6.70;;;12.70;99.90;;;;;;4997368;28;20042;-74
2022/03/12 12:20:15;;;;;;;8.80;5.97;;;12.80;99.90;;;;;;4997447;28;20058;-72
2022/03/12 12:22:41;;;;;;;6.82;5.15;;;12.80;99.90;;;;;;4997344;28;20050;-73
2022/03/12 12:25:09;;;;;;;12.57;6.45;;;12.90;99.90;;;;;;4988714;28;20047;-73
2022/03/12 12:27:49;;;;;;;10.75;6.72;;;12.90;99.90;;;;;;4997338;28;20117;-71
2022/03/12 12:30:38;;;;;;;11.32;6.40;;;13.20;99.90;;;;;;4996570;28;20383;-71
2022/03/12 12:33:23;;;;;;;12.05;6.30;;;13.40;99.90;;;;;;4996714;28;20365;-70
2022/03/12 12:36:08;;;;;;;6.85;5.65;;;13.40;99.90;;;;;;4996476;28;20046;-71
2022/03/12 12:38:34;;;;;;;11.75;6.78;;;13.40;99.90;;;;;;4997038;28;20356;-70
2022/03/12 12:41:03;;;;;;;9.95;6.38;;;13.40;99.90;;;;;;4996678;28;20338;-70
2022/03/12 12:43:40;;;;;;;9.55;6.50;;;13.50;99.90;;;;;;4997048;28;20042;-71